Time;durP1;ratioP1;P1;durP2;ratioP2;P2;SDS_P1;SDS_P2;PMS_P1;PMS_P2;Temp;Humidity;BMP_temperature;BMP_pressure;BME280_temperature;BME280_humidity;BME280_pressure;Samples;Min_cycle;Max_cycle;Signal;HPM_P1;HPM_P2
2024/04/03 00:02:10;;;;;;;1.38;0.52;;;19.50;60.70;;;;;;5043551;28;20107;-72
2024/04/03 00:04:37;;;;;;;1.48;0.80;;;19.50;60.70;;;;;;5047267;28;20033;-70
2024/04/03 00:07:03;;;;;;;1.73;0.55;;;19.50;61.40;;;;;;5048078;28;20120;-69
2024/04/03 00:09:29;;;;;;;0.40;0.35;;;19.50;60.80;;;;;;5047874;28;20025;-66
2024/04/03 00:11:54;;;;;;;0.60;0.50;;;19.50;60.80;;;;;;5043718;28;20068;-69
2024/04/03 00:14:20;;;;;;;0.80;0.47;;;19.50;60.70;;;;;;5043477;28;20024;-68
2024/04/03 00:16:45;;;;;;;1.13;0.45;;;19.50;60.80;;;;;;5045282;28;20057;-69
2024/04/03 00:19:11;;;;;;;1.67;0.80;;;19.50;60.80;;;;;;5039457;28;20045;-68
2024/04/03 00:21:36;;;;;;;1.83;0.70;;;19.50;60.70;;;;;;5045054;28;20032;-68
2024/04/03 00:24:03;;;;;;;0.50;0.40;;;19.50;60.70;;;;;;5059577;28;20088;-69
2024/04/03 00:26:28;;;;;;;1.05;0.65;;;19.50;60.70;;;;;;5059040;28;20025;-68
2024/04/03 00:28:53;;;;;;;1.15;0.63;;;19.50;60.70;;;;;;5050218;28;20131;-69
2024/04/03 00:31:19;;;;;;;0.73;0.50;;;19.50;60.70;;;;;;5041187;28;20380;-69
2024/04/03 00:33:47;;;;;;;1.23;0.70;;;19.50;60.70;;;;;;5042498;28;20048;-68
2024/04/03 00:36:13;;;;;;;0.75;0.50;;;19.50;60.70;;;;;;5041137;28;20039;-68
2024/04/03 00:38:38;;;;;;;0.73;0.50;;;19.50;60.70;;;;;;5041666;28;20028;-68
2024/04/03 00:41:04;;;;;;;1.02;0.70;;;19.50;60.70;;;;;;5042102;28;20082;-68
2024/04/03 00:43:30;;;;;;;0.93;0.50;;;19.50;60.80;;;;;;5040834;28;20025;-69
2024/04/03 00:45:58;;;;;;;1.45;0.80;;;19.50;60.70;;;;;;5044737;28;20499;-69
2024/04/03 00:48:25;;;;;;;0.73;0.40;;;19.50;60.70;;;;;;5043391;28;20036;-69
2024/04/03 00:50:51;;;;;;;0.52;0.40;;;19.50;60.70;;;;;;5043099;28;20075;-66
2024/04/03 00:53:18;;;;;;;1.65;0.60;;;19.50;60.70;;;;;;5041424;28;20102;-69
2024/04/03 00:55:44;;;;;;;1.63;0.60;;;19.50;60.70;;;;;;5044045;28;20044;-65
2024/04/03 00:58:10;;;;;;;1.67;0.60;;;19.50;60.70;;;;;;5042518;28;20029;-68
2024/04/03 01:00:35;;;;;;;0.70;0.43;;;19.50;60.70;;;;;;5048237;28;20033;-68
2024/04/03 01:03:05;;;;;;;1.00;0.60;;;19.50;60.70;;;;;;5045094;28;20447;-69
2024/04/03 01:05:31;;;;;;;2.88;0.60;;;19.50;60.70;;;;;;5043816;28;20102;-69
2024/04/03 01:07:58;;;;;;;1.63;0.80;;;19.40;60.70;;;;;;5042255;28;20029;-69
2024/04/03 01:10:24;;;;;;;1.00;0.65;;;19.40;60.70;;;;;;5041314;28;20045;-65
2024/04/03 01:12:51;;;;;;;1.17;0.60;;;19.40;60.80;;;;;;5042499;28;20064;-68
2024/04/03 01:15:16;;;;;;;0.93;0.77;;;19.40;60.90;;;;;;5041443;28;20044;-67
2024/04/03 01:17:42;;;;;;;0.80;0.40;;;19.40;60.90;;;;;;5045871;28;20033;-68
2024/04/03 01:20:08;;;;;;;0.60;0.45;;;19.40;60.90;;;;;;5044867;28;20032;-68
2024/04/03 01:22:34;;;;;;;1.30;0.43;;;19.40;60.90;;;;;;5053328;28;20315;-66
2024/04/03 01:25:00;;;;;;;0.57;0.50;;;19.30;60.90;;;;;;5046655;28;20770;-66
2024/04/03 01:27:27;;;;;;;0.57;0.40;;;19.30;61.00;;;;;;5039252;28;20029;-69
2024/04/03 01:29:53;;;;;;;0.73;0.40;;;19.30;61.10;;;;;;5043894;28;20057;-70
2024/04/03 01:32:19;;;;;;;0.90;0.50;;;19.30;61.10;;;;;;5041316;28;20666;-70
2024/04/03 01:34:45;;;;;;;0.82;0.55;;;19.30;61.20;;;;;;5039077;28;20028;-69
2024/04/03 01:37:10;;;;;;;0.70;0.40;;;19.20;61.20;;;;;;5044741;28;20036;-69
2024/04/03 01:39:36;;;;;;;0.85;0.52;;;19.20;61.20;;;;;;5051765;28;20380;-64
2024/04/03 01:42:01;;;;;;;1.00;0.60;;;19.20;61.20;;;;;;5037605;28;20029;-69
2024/04/03 01:44:27;;;;;;;1.35;0.40;;;19.20;61.20;;;;;;5041326;28;20472;-66
2024/04/03 01:46:52;;;;;;;1.60;0.50;;;19.20;61.20;;;;;;5040236;28;20113;-68
2024/04/03 01:49:18;;;;;;;1.75;0.50;;;19.20;61.20;;;;;;5046099;28;20040;-68
2024/04/03 01:51:43;;;;;;;0.60;0.40;;;19.20;61.20;;;;;;5038636;28;20386;-68
2024/04/03 01:54:09;;;;;;;1.52;0.32;;;19.20;61.30;;;;;;5036798;28;20037;-69
2024/04/03 01:56:34;;;;;;;0.68;0.40;;;19.20;61.30;;;;;;5038822;28;20037;-70
2024/04/03 01:59:00;;;;;;;1.50;0.50;;;19.20;61.30;;;;;;5034996;28;20322;-69
2024/04/03 02:01:25;;;;;;;0.88;0.55;;;19.20;61.20;;;;;;5035853;28;20037;-69
2024/04/03 02:03:51;;;;;;;2.00;0.55;;;19.20;61.20;;;;;;5038896;28;20510;-69
2024/04/03 02:06:16;;;;;;;1.25;0.50;;;19.20;61.20;;;;;;5034477;28;20056;-69
2024/04/03 02:08:42;;;;;;;0.75;0.50;;;19.20;61.10;;;;;;5029001;28;20486;-69
2024/04/03 02:11:07;;;;;;;0.63;0.32;;;19.20;61.10;;;;;;5051858;28;20512;-68
2024/04/03 02:13:33;;;;;;;1.60;0.50;;;19.20;61.10;;;;;;5028793;28;20116;-69
2024/04/03 02:15:58;;;;;;;1.33;0.70;;;19.20;61.10;;;;;;5038882;28;20037;-69
2024/04/03 02:18:24;;;;;;;1.83;0.70;;;19.20;61.10;;;;;;5033530;28;20071;-69
2024/04/03 02:20:51;;;;;;;1.05;0.60;;;19.20;61.10;;;;;;5041784;28;20377;-68
2024/04/03 02:23:16;;;;;;;1.58;0.70;;;19.20;61.10;;;;;;5026983;28;20391;-69
2024/04/03 02:25:42;;;;;;;0.85;0.60;;;19.20;61.10;;;;;;5041057;28;20240;-68
2024/04/03 02:28:07;;;;;;;1.27;0.45;;;19.20;61.10;;;;;;5034900;28;20027;-67
2024/04/03 02:30:33;;;;;;;1.00;0.40;;;19.20;61.70;;;;;;5040199;28;20048;-69
2024/04/03 02:32:58;;;;;;;1.42;0.55;;;19.20;61.10;;;;;;5038310;28;20017;-70
2024/04/03 02:35:27;;;;;;;1.65;0.50;;;19.20;61.10;;;;;;5037000;28;20348;-70
2024/04/03 02:37:52;;;;;;;1.27;0.60;;;19.20;61.10;;;;;;5047374;28;20040;-69
2024/04/03 02:40:18;;;;;;;0.90;0.50;;;19.20;61.10;;;;;;5041769;28;20033;-69
2024/04/03 02:42:43;;;;;;;2.00;0.68;;;19.20;61.10;;;;;;5035221;28;20064;-69
2024/04/03 02:45:09;;;;;;;0.40;0.38;;;19.20;61.10;;;;;;5035048;28;20147;-69
2024/04/03 02:47:36;;;;;;;1.48;0.50;;;19.20;61.10;;;;;;5034204;28;20358;-68
2024/04/03 02:50:01;;;;;;;0.70;0.50;;;19.20;61.10;;;;;;5042299;28;20037;-69
2024/04/03 02:52:26;;;;;;;0.95;0.50;;;19.20;61.10;;;;;;5039910;28;20032;-66
2024/04/03 02:54:52;;;;;;;0.95;0.55;;;19.20;61.10;;;;;;5039663;28;20127;-67
2024/04/03 02:57:17;;;;;;;0.38;0.35;;;19.20;61.10;;;;;;5038664;28;20103;-69
2024/04/03 02:59:43;;;;;;;0.88;0.40;;;19.20;61.10;;;;;;5038042;28;20043;-69
2024/04/03 03:02:08;;;;;;;1.17;0.50;;;19.10;61.10;;;;;;5035808;28;20282;-69
2024/04/03 03:04:44;;;;;;;1.05;0.47;;;19.20;61.10;;;;;;5040378;28;20888;-68
2024/04/03 03:07:10;;;;;;;0.65;0.50;;;19.20;61.10;;;;;;5026558;28;20040;-69
2024/04/03 03:09:36;;;;;;;0.85;0.50;;;19.20;61.10;;;;;;5038607;28;20098;-68
2024/04/03 03:12:03;;;;;;;0.73;0.38;;;19.10;61.00;;;;;;5040508;28;20565;-68
2024/04/03 03:14:28;;;;;;;1.10;0.57;;;19.10;61.00;;;;;;5032760;28;20037;-69
2024/04/03 03:16:54;;;;;;;0.68;0.47;;;19.10;61.10;;;;;;5040032;28;20037;-66
2024/04/03 03:19:19;;;;;;;1.20;0.45;;;19.10;61.00;;;;;;5034417;28;20052;-66
2024/04/03 03:21:46;;;;;;;1.15;0.73;;;19.10;61.00;;;;;;5030017;28;20496;-69
2024/04/03 03:24:11;;;;;;;2.08;0.63;;;19.10;61.00;;;;;;5033912;28;20083;-68
2024/04/03 03:26:37;;;;;;;0.95;0.50;;;19.10;61.00;;;;;;5033948;28;20543;-68
2024/04/03 03:29:02;;;;;;;1.27;0.50;;;19.10;61.00;;;;;;5034546;28;20792;-69
2024/04/03 03:31:28;;;;;;;1.75;0.52;;;19.10;61.00;;;;;;5037632;28;20068;-69
2024/04/03 03:33:54;;;;;;;0.90;0.43;;;19.10;61.00;;;;;;5034047;28;20021;-70
2024/04/03 03:36:20;;;;;;;1.20;0.50;;;19.10;61.00;;;;;;5037794;28;20033;-68
2024/04/03 03:38:45;;;;;;;1.35;0.70;;;19.10;60.90;;;;;;5041133;28;20041;-68
2024/04/03 03:41:11;;;;;;;0.73;0.30;;;19.10;61.00;;;;;;5024039;28;20036;-68
2024/04/03 03:43:36;;;;;;;0.80;0.43;;;19.10;60.90;;;;;;5039966;28;20039;-69
2024/04/03 03:46:02;;;;;;;1.60;0.80;;;19.10;60.90;;;;;;5032729;28;20374;-65
2024/04/03 03:54:01;;;;;;;1.15;0.50;;;19.10;60.90;;;;;;5033496;28;20067;-66
2024/04/03 03:56:26;;;;;;;0.63;0.40;;;19.10;60.80;;;;;;5040729;28;20047;-69
2024/04/03 03:58:52;;;;;;;0.90;0.47;;;19.10;60.80;;;;;;5034553;28;20033;-69
2024/04/03 04:01:17;;;;;;;1.40;0.65;;;19.10;60.70;;;;;;5039101;28;20053;-69
2024/04/03 04:03:43;;;;;;;1.25;0.50;;;19.10;60.80;;;;;;5036768;28;20112;-68
2024/04/03 04:06:09;;;;;;;1.02;0.55;;;19.10;60.80;;;;;;5040278;28;20044;-66
2024/04/03 04:08:34;;;;;;;0.50;0.40;;;19.10;60.80;;;;;;5037450;28;20025;-65
2024/04/03 04:11:00;;;;;;;0.43;0.32;;;19.10;60.80;;;;;;5036223;28;20083;-69
2024/04/03 04:13:26;;;;;;;1.73;0.73;;;19.10;60.70;;;;;;5045858;28;20056;-71
2024/04/03 04:15:52;;;;;;;1.50;0.90;;;19.20;60.80;;;;;;5039357;28;20071;-68
2024/04/03 04:18:18;;;;;;;1.88;0.63;;;19.10;60.70;;;;;;5041099;28;20033;-67
2024/04/03 04:20:53;;;;;;;1.02;0.52;;;19.10;60.70;;;;;;5033603;28;20033;-68
2024/04/03 04:23:18;;;;;;;1.90;0.60;;;19.10;60.70;;;;;;5037242;28;20025;-68
2024/04/03 04:26:03;;;;;;;0.65;0.40;;;19.10;60.70;;;;;;5036093;28;20109;-68
2024/04/03 04:28:34;;;;;;;0.55;0.40;;;19.10;60.70;;;;;;5032103;28;20033;-68
2024/04/03 04:30:59;;;;;;;0.60;0.40;;;19.10;60.60;;;;;;5041430;28;20029;-68
2024/04/03 04:33:26;;;;;;;1.27;0.43;;;19.10;61.30;;;;;;5041452;28;20488;-68
2024/04/03 04:35:55;;;;;;;0.45;0.30;;;19.20;60.70;;;;;;5034082;28;20045;-70
2024/04/03 04:38:25;;;;;;;0.50;0.43;;;19.10;60.60;;;;;;5042750;28;20036;-71
2024/04/03 04:40:53;;;;;;;0.35;0.30;;;19.10;60.60;;;;;;5032153;28;20028;-70
2024/04/03 04:43:18;;;;;;;1.40;0.50;;;19.10;61.20;;;;;;5043089;28;20018;-66
2024/04/03 04:45:44;;;;;;;1.23;0.50;;;19.20;60.70;;;;;;5040105;28;20036;-69
2024/04/03 04:48:09;;;;;;;0.80;0.40;;;19.10;60.60;;;;;;5042226;28;20039;-68
2024/04/03 04:50:35;;;;;;;0.90;0.40;;;19.10;60.60;;;;;;5035991;28;20056;-68
2024/04/03 04:53:00;;;;;;;1.27;0.70;;;19.10;61.20;;;;;;5041346;28;20423;-68
2024/04/03 04:55:26;;;;;;;0.47;0.30;;;19.20;60.60;;;;;;5037361;28;20040;-67
2024/04/03 04:57:51;;;;;;;1.33;0.88;;;19.10;61.20;;;;;;5042342;28;20052;-68
2024/04/03 05:00:17;;;;;;;1.63;0.55;;;19.20;60.50;;;;;;5035669;28;20472;-70
2024/04/03 05:02:42;;;;;;;0.70;0.55;;;19.10;60.50;;;;;;5035274;28;20334;-69
2024/04/03 05:05:08;;;;;;;0.60;0.40;;;19.20;60.60;;;;;;5034785;28;20148;-68
2024/04/03 05:07:33;;;;;;;2.42;0.45;;;19.20;60.50;;;;;;5037683;28;20025;-69
2024/04/03 05:09:59;;;;;;;1.65;0.70;;;19.20;60.40;;;;;;5034180;28;20029;-69
2024/04/03 05:12:25;;;;;;;1.00;0.50;;;19.20;60.30;;;;;;5033795;28;20028;-67
2024/04/03 05:14:50;;;;;;;1.20;0.50;;;19.20;60.30;;;;;;5036807;28;20052;-68
2024/04/03 05:17:16;;;;;;;3.83;0.88;;;19.20;60.20;;;;;;5037561;28;21253;-68
2024/04/03 05:19:41;;;;;;;1.63;0.70;;;19.20;60.10;;;;;;5034335;28;20527;-70
2024/04/03 05:22:10;;;;;;;2.65;0.70;;;19.20;60.20;;;;;;5038286;28;20033;-68
2024/04/03 05:24:36;;;;;;;1.25;0.70;;;19.20;60.10;;;;;;5038460;28;20495;-68
2024/04/03 05:27:01;;;;;;;2.55;0.70;;;19.20;60.20;;;;;;5038847;28;20036;-69
2024/04/03 05:29:27;;;;;;;1.42;0.70;;;19.20;60.20;;;;;;5038489;28;20385;-65
2024/04/03 05:31:52;;;;;;;1.27;0.73;;;19.30;60.30;;;;;;5034216;28;20183;-69
2024/04/03 05:34:18;;;;;;;3.10;1.20;;;19.20;60.20;;;;;;5033361;28;20123;-68
2024/04/03 05:36:43;;;;;;;4.72;1.77;;;19.20;60.30;;;;;;5031660;28;20051;-68
2024/04/03 05:39:09;;;;;;;4.47;1.52;;;19.20;60.40;;;;;;5031332;28;20033;-68
2024/04/03 05:41:34;;;;;;;6.60;2.20;;;19.20;60.50;;;;;;5027850;28;20442;-67
2024/04/03 05:44:00;;;;;;;4.65;2.53;;;19.20;60.50;;;;;;5027116;28;20710;-68
2024/04/03 05:46:26;;;;;;;4.85;2.67;;;19.20;60.40;;;;;;5036040;28;20033;-65
2024/04/03 05:48:51;;;;;;;4.20;2.15;;;19.20;60.30;;;;;;5035856;28;20045;-69
2024/04/03 05:51:16;;;;;;;5.10;3.13;;;19.30;60.30;;;;;;5040150;28;20128;-69
2024/04/03 05:53:42;;;;;;;6.45;3.25;;;19.40;60.30;;;;;;5031759;28;20503;-69
2024/04/03 05:56:08;;;;;;;4.53;3.00;;;19.30;60.10;;;;;;5038975;28;20040;-69
2024/04/03 05:58:34;;;;;;;6.13;2.67;;;19.40;60.10;;;;;;5034545;28;20138;-68
2024/04/03 06:01:01;;;;;;;5.57;2.45;;;19.30;60.10;;;;;;5035502;28;20507;-68
2024/04/03 06:03:27;;;;;;;4.20;2.83;;;19.30;60.30;;;;;;5039599;28;20029;-68
2024/04/03 06:05:55;;;;;;;4.95;2.72;;;19.30;60.30;;;;;;5036569;28;20033;-69
2024/04/03 06:08:21;;;;;;;5.35;3.03;;;19.30;60.40;;;;;;5038420;28;20082;-68
2024/04/03 06:10:47;;;;;;;8.00;2.90;;;19.30;60.50;;;;;;5038478;28;20131;-64
2024/04/03 06:13:13;;;;;;;4.50;2.67;;;19.30;60.50;;;;;;5036317;28;20048;-68
2024/04/03 06:15:39;;;;;;;5.50;2.83;;;19.30;60.50;;;;;;5035385;28;20029;-68
2024/04/03 06:18:04;;;;;;;6.13;3.15;;;19.30;60.50;;;;;;5035670;28;20058;-64
2024/04/03 06:20:30;;;;;;;5.60;2.92;;;19.30;60.50;;;;;;5038693;28;20037;-68
2024/04/03 06:22:56;;;;;;;6.32;3.15;;;19.30;60.50;;;;;;5037731;28;20036;-69
2024/04/03 06:25:22;;;;;;;6.18;2.70;;;19.30;60.40;;;;;;5041725;28;20138;-69
2024/04/03 06:27:48;;;;;;;5.82;3.28;;;19.30;60.30;;;;;;5036833;28;20041;-69
2024/04/03 06:30:13;;;;;;;3.50;2.53;;;19.30;60.40;;;;;;5036266;28;20525;-69
2024/04/03 06:32:40;;;;;;;6.03;3.30;;;19.30;60.50;;;;;;5035544;28;20036;-65
2024/04/03 06:35:06;;;;;;;5.22;2.95;;;19.30;60.50;;;;;;5036366;28;20395;-69
2024/04/03 06:37:32;;;;;;;5.57;3.60;;;19.30;60.40;;;;;;5037396;28;20037;-69
2024/04/03 06:39:58;;;;;;;4.03;2.72;;;19.30;60.40;;;;;;5035535;28;20117;-69
2024/04/03 06:42:24;;;;;;;4.60;3.00;;;19.30;60.50;;;;;;5046237;28;20033;-69
2024/04/03 06:44:50;;;;;;;5.63;2.83;;;19.30;60.50;;;;;;5038046;28;20031;-66
2024/04/03 06:47:16;;;;;;;4.53;2.95;;;19.30;60.50;;;;;;5036314;28;20048;-69
2024/04/03 06:49:42;;;;;;;5.30;2.63;;;19.30;60.50;;;;;;5033634;28;20040;-69
2024/04/03 06:52:07;;;;;;;4.38;2.80;;;19.30;60.50;;;;;;5029927;28;20042;-69
2024/04/03 06:54:34;;;;;;;3.00;2.40;;;19.30;60.50;;;;;;5040136;28;20171;-68
2024/04/03 06:56:59;;;;;;;3.10;2.50;;;19.30;60.50;;;;;;5032501;28;20520;-66
2024/04/03 06:59:25;;;;;;;4.63;2.75;;;19.30;60.60;;;;;;5033584;28;20040;-65
2024/04/03 07:01:50;;;;;;;5.15;2.70;;;19.30;60.50;;;;;;5034584;28;20039;-69
2024/04/03 07:04:16;;;;;;;5.13;2.50;;;19.30;60.50;;;;;;5038351;28;20472;-69
2024/04/03 07:06:42;;;;;;;5.45;2.88;;;19.30;60.50;;;;;;5024975;28;20052;-69
2024/04/03 07:09:07;;;;;;;3.67;2.60;;;19.30;60.50;;;;;;5038374;28;20627;-69
2024/04/03 07:11:33;;;;;;;4.22;2.78;;;19.30;60.50;;;;;;5030430;28;20029;-69
2024/04/03 07:13:59;;;;;;;3.42;2.58;;;19.20;60.50;;;;;;5031566;28;20518;-69
2024/04/03 07:16:24;;;;;;;2.83;2.20;;;19.30;60.60;;;;;;5024290;28;20408;-65
2024/04/03 07:18:56;;;;;;;3.53;2.38;;;19.20;60.60;;;;;;5030169;28;20025;-65
2024/04/03 07:21:23;;;;;;;4.25;2.20;;;19.20;60.60;;;;;;4983964;28;20028;-65
2024/04/03 07:23:49;;;;;;;3.33;2.55;;;19.20;60.70;;;;;;5048679;28;20128;-69
2024/04/03 07:26:14;;;;;;;6.65;2.42;;;19.20;60.70;;;;;;5039387;28;20277;-68
2024/04/03 07:28:42;;;;;;;4.97;2.55;;;19.20;60.80;;;;;;5035080;28;20503;-68
2024/04/03 07:31:08;;;;;;;5.05;2.35;;;19.20;60.90;;;;;;5038690;28;20162;-70
2024/04/03 07:33:33;;;;;;;3.67;2.20;;;19.10;60.90;;;;;;5049664;28;20108;-69
2024/04/03 07:36:02;;;;;;;5.82;2.22;;;19.10;61.00;;;;;;5032288;28;20032;-68
2024/04/03 07:38:27;;;;;;;2.85;2.05;;;19.10;61.00;;;;;;5037843;28;20048;-69
2024/04/03 07:40:54;;;;;;;4.82;2.50;;;19.10;61.00;;;;;;5041109;28;20017;-67
2024/04/03 07:43:20;;;;;;;4.57;2.70;;;19.10;61.10;;;;;;5039646;28;20051;-65
2024/04/03 07:45:46;;;;;;;4.13;2.25;;;19.10;61.10;;;;;;5042169;28;20056;-68
2024/04/03 07:48:11;;;;;;;4.22;2.50;;;19.10;61.10;;;;;;5038439;28;20064;-68
2024/04/03 07:50:39;;;;;;;3.88;2.25;;;19.00;61.00;;;;;;5039398;28;20049;-65
2024/04/03 07:53:05;;;;;;;3.67;2.20;;;19.00;61.00;;;;;;5040492;28;20507;-69
2024/04/03 07:55:35;;;;;;;3.05;1.75;;;19.10;61.00;;;;;;5039535;28;20056;-70
2024/04/03 07:58:01;;;;;;;3.17;2.10;;;19.00;60.90;;;;;;5033040;28;20037;-65
2024/04/03 08:00:26;;;;;;;3.45;2.13;;;19.00;60.90;;;;;;5023303;28;20036;-69
2024/04/03 08:02:52;;;;;;;3.40;1.70;;;19.10;60.90;;;;;;5001143;28;20036;-69
2024/04/03 08:05:17;;;;;;;2.47;1.70;;;19.10;60.90;;;;;;5019157;28;20032;-69
2024/04/03 08:07:43;;;;;;;4.30;2.22;;;19.10;60.90;;;;;;5043230;28;20037;-69
2024/04/03 08:10:09;;;;;;;2.45;1.90;;;19.10;60.90;;;;;;5033569;28;20071;-69
2024/04/03 08:12:38;;;;;;;2.80;1.90;;;19.10;60.90;;;;;;5036839;28;20029;-66
2024/04/03 08:15:04;;;;;;;3.63;2.13;;;19.10;60.90;;;;;;5029878;28;20037;-68
2024/04/03 08:17:30;;;;;;;2.60;2.00;;;19.10;60.80;;;;;;5026971;28;20125;-69
2024/04/03 08:19:56;;;;;;;4.20;2.00;;;19.10;60.90;;;;;;5026207;28;20040;-70
2024/04/03 08:22:22;;;;;;;2.50;1.80;;;19.10;60.90;;;;;;5032863;28;20044;-69
2024/04/03 08:24:49;;;;;;;2.30;1.52;;;19.10;60.90;;;;;;5029152;28;20493;-69
2024/04/03 08:27:15;;;;;;;2.47;1.75;;;19.10;60.90;;;;;;5029680;28;20112;-69
2024/04/03 08:29:43;;;;;;;3.10;1.88;;;19.10;61.00;;;;;;5026899;28;20175;-68
2024/04/03 08:32:11;;;;;;;2.40;1.70;;;19.00;60.90;;;;;;5036841;28;20115;-69
2024/04/03 08:34:37;;;;;;;3.65;1.88;;;19.10;61.00;;;;;;5013734;28;20098;-65
2024/04/03 08:37:04;;;;;;;2.88;2.10;;;19.10;61.00;;;;;;5035455;28;20416;-69
2024/04/03 08:39:31;;;;;;;3.03;1.60;;;19.00;61.00;;;;;;5040344;28;20036;-66
2024/04/03 08:41:58;;;;;;;2.42;1.50;;;19.00;61.00;;;;;;5036924;28;20036;-70
2024/04/03 08:44:28;;;;;;;3.80;1.73;;;19.10;61.00;;;;;;5037534;28;20033;-70
2024/04/03 08:46:54;;;;;;;2.28;1.65;;;19.10;61.00;;;;;;5038428;28;20124;-67
2024/04/03 08:49:27;;;;;;;3.58;1.80;;;19.00;61.00;;;;;;5031855;28;20060;-69
2024/04/03 08:52:07;;;;;;;3.13;1.70;;;19.00;61.10;;;;;;5028265;28;20488;-69
2024/04/03 08:54:34;;;;;;;2.67;1.77;;;19.00;61.00;;;;;;5036449;28;20040;-69
2024/04/03 08:57:03;;;;;;;2.88;1.58;;;19.00;61.00;;;;;;5039178;28;20033;-67
2024/04/03 08:59:34;;;;;;;2.75;1.58;;;19.00;61.00;;;;;;5035702;28;20492;-68
2024/04/03 09:01:59;;;;;;;1.95;1.20;;;19.00;61.10;;;;;;5030141;28;20464;-69
2024/04/03 09:04:25;;;;;;;1.95;1.48;;;19.00;61.00;;;;;;5045566;28;20033;-69
2024/04/03 09:06:51;;;;;;;3.08;1.73;;;19.00;61.00;;;;;;5039916;28;20040;-70
2024/04/03 09:09:21;;;;;;;2.85;1.73;;;19.00;61.00;;;;;;5037575;28;20511;-68
2024/04/03 09:11:50;;;;;;;3.70;1.52;;;19.00;61.00;;;;;;5040241;28;20029;-69
2024/04/03 09:14:22;;;;;;;5.28;1.70;;;19.00;61.00;;;;;;5034864;28;20026;-66
2024/04/03 09:16:47;;;;;;;1.83;1.50;;;19.00;60.90;;;;;;5040683;28;20492;-67
2024/04/03 09:19:13;;;;;;;2.00;1.20;;;19.10;60.90;;;;;;5037329;28;20047;-66
2024/04/03 09:21:40;;;;;;;1.45;1.25;;;19.10;60.90;;;;;;5043164;28;20045;-66
2024/04/03 09:24:07;;;;;;;2.10;1.60;;;19.10;60.90;;;;;;5039169;28;20044;-68
2024/04/03 09:26:33;;;;;;;1.92;1.42;;;19.10;60.80;;;;;;5043986;28;20033;-69
2024/04/03 09:29:02;;;;;;;3.17;1.27;;;19.10;60.80;;;;;;5042399;28;20083;-68
2024/04/03 09:31:30;;;;;;;2.28;1.65;;;19.10;60.80;;;;;;5043785;28;20058;-68
2024/04/03 09:33:55;;;;;;;2.17;1.40;;;19.10;60.70;;;;;;5040407;28;20487;-69
2024/04/03 09:36:22;;;;;;;2.08;1.60;;;19.20;60.70;;;;;;5040661;28;20048;-68
2024/04/03 09:38:49;;;;;;;2.30;1.27;;;19.20;60.70;;;;;;5042596;28;20033;-68
2024/04/03 09:41:15;;;;;;;2.20;1.48;;;19.20;60.70;;;;;;5045947;28;20124;-68
2024/04/03 09:43:45;;;;;;;1.58;1.40;;;19.20;60.60;;;;;;5044278;28;20033;-69
2024/04/03 09:46:13;;;;;;;1.98;1.17;;;19.20;60.60;;;;;;5042154;28;20063;-69
2024/04/03 09:48:40;;;;;;;1.70;1.20;;;19.20;60.50;;;;;;5035596;28;20040;-69
2024/04/03 09:51:06;;;;;;;2.05;1.02;;;19.20;60.50;;;;;;5043466;28;20037;-68
2024/04/03 09:53:32;;;;;;;2.25;1.30;;;19.30;60.50;;;;;;5046710;28;20037;-69
2024/04/03 09:55:58;;;;;;;2.15;1.10;;;19.30;60.50;;;;;;5042606;28;20521;-68
2024/04/03 09:58:27;;;;;;;2.42;1.33;;;19.30;60.50;;;;;;5042426;28;20037;-69
2024/04/03 10:00:57;;;;;;;1.42;1.08;;;19.30;60.50;;;;;;5045493;28;20591;-68
2024/04/03 10:03:27;;;;;;;1.20;1.00;;;19.30;60.40;;;;;;5015093;28;20546;-65
2024/04/03 10:06:09;;;;;;;1.55;1.27;;;19.30;60.50;;;;;;5034700;28;20522;-68
2024/04/03 10:08:37;;;;;;;2.05;0.90;;;19.30;60.40;;;;;;5051809;28;20083;-69
2024/04/03 10:11:11;;;;;;;1.63;1.20;;;19.30;60.40;;;;;;5040811;28;20429;-69
2024/04/03 10:13:42;;;;;;;1.08;0.88;;;19.30;60.40;;;;;;5040037;28;20492;-69
2024/04/03 10:16:12;;;;;;;1.17;1.00;;;19.40;60.50;;;;;;5039904;28;20041;-68
2024/04/03 10:18:47;;;;;;;1.23;0.90;;;19.30;60.30;;;;;;5030722;28;20033;-69
2024/04/03 10:21:13;;;;;;;;;;;19.40;60.40;;;;;;5040921;28;20753;-67
2024/04/03 10:23:48;;;;;;;2.10;1.38;;;19.40;60.40;;;;;;5042265;28;19909;-69
2024/04/03 10:26:16;;;;;;;2.22;1.10;;;19.40;60.30;;;;;;5041549;28;20100;-68
2024/04/03 10:28:42;;;;;;;1.35;0.90;;;19.40;60.40;;;;;;5040877;28;20492;-67
2024/04/03 10:31:09;;;;;;;1.48;1.08;;;19.40;60.40;;;;;;5042330;28;20040;-68
2024/04/03 10:33:35;;;;;;;1.50;1.00;;;19.40;60.30;;;;;;5042273;28;20056;-69
2024/04/03 10:36:01;;;;;;;1.23;0.85;;;19.40;60.30;;;;;;5041473;28;20480;-68
2024/04/03 10:38:27;;;;;;;2.65;1.45;;;19.40;60.40;;;;;;5044792;28;20029;-69
2024/04/03 10:40:56;;;;;;;2.28;1.30;;;19.40;60.30;;;;;;5043350;28;20052;-66
2024/04/03 10:43:21;;;;;;;4.65;1.00;;;19.40;60.30;;;;;;5042723;28;20504;-65
2024/04/03 10:45:51;;;;;;;2.20;1.10;;;19.50;60.30;;;;;;5042492;28;20025;-68
2024/04/03 10:48:17;;;;;;;1.48;1.00;;;19.40;60.30;;;;;;5038006;28;20029;-69
2024/04/03 10:50:44;;;;;;;3.08;1.08;;;19.40;60.30;;;;;;5038890;28;20033;-69
2024/04/03 10:53:09;;;;;;;1.45;0.95;;;19.40;60.30;;;;;;5042087;28;20488;-68
2024/04/03 10:55:38;;;;;;;1.80;1.00;;;19.50;60.40;;;;;;5042784;28;20048;-65
2024/04/03 10:58:05;;;;;;;1.90;1.10;;;19.40;60.40;;;;;;5043105;28;20498;-65
2024/04/03 11:00:35;;;;;;;1.45;1.00;;;19.40;60.20;;;;;;5041481;28;20060;-68
2024/04/03 11:03:05;;;;;;;1.40;1.13;;;19.40;60.30;;;;;;5040567;28;20025;-68
2024/04/03 11:05:31;;;;;;;1.58;0.88;;;19.50;60.30;;;;;;5049236;28;20044;-65
2024/04/03 11:07:58;;;;;;;2.72;1.00;;;19.50;60.30;;;;;;5049896;28;20407;-66
2024/04/03 11:10:25;;;;;;;2.03;1.20;;;19.40;60.30;;;;;;5047051;28;20079;-65
2024/04/03 11:13:04;;;;;;;1.00;0.80;;;19.50;60.30;;;;;;5041766;28;20546;-65
2024/04/03 11:15:30;;;;;;;2.00;1.08;;;19.50;60.30;;;;;;5042332;28;20514;-68
2024/04/03 11:17:56;;;;;;;2.22;0.82;;;19.50;60.30;;;;;;5041728;28;20024;-66
2024/04/03 11:20:25;;;;;;;2.22;1.15;;;19.50;60.30;;;;;;5036939;28;20689;-68
2024/04/03 11:22:58;;;;;;;1.85;1.08;;;19.50;60.30;;;;;;5039978;28;20047;-68
2024/04/03 11:25:27;;;;;;;1.23;0.80;;;19.50;60.30;;;;;;5036055;28;20490;-68
2024/04/03 11:27:53;;;;;;;1.50;0.93;;;19.50;60.30;;;;;;5040589;28;20029;-69
2024/04/03 11:30:19;;;;;;;2.08;0.77;;;19.50;60.30;;;;;;5038437;28;20033;-68
2024/04/03 11:32:44;;;;;;;1.70;1.00;;;19.50;60.30;;;;;;5040650;28;20021;-66
2024/04/03 11:35:10;;;;;;;3.40;1.25;;;19.50;60.30;;;;;;5040797;28;20494;-68
2024/04/03 11:37:35;;;;;;;1.63;1.00;;;19.50;60.30;;;;;;5044243;28;20440;-65
2024/04/03 11:40:04;;;;;;;1.02;0.85;;;19.50;60.90;;;;;;5045248;28;20033;-69
2024/04/03 11:42:33;;;;;;;1.33;0.90;;;19.50;60.30;;;;;;5040341;28;20025;-69
2024/04/03 11:44:59;;;;;;;1.42;1.00;;;19.60;60.30;;;;;;5041769;28;20108;-69
2024/04/03 11:47:24;;;;;;;0.95;0.85;;;19.50;60.20;;;;;;5040768;28;20444;-68
2024/04/03 11:49:50;;;;;;;1.10;0.80;;;19.50;60.30;;;;;;5041099;28;20044;-68
2024/04/03 11:52:16;;;;;;;1.08;0.75;;;19.60;60.30;;;;;;5040946;28;20032;-69
2024/04/03 11:54:42;;;;;;;1.35;0.90;;;19.60;60.20;;;;;;5042805;28;20124;-68
2024/04/03 11:57:08;;;;;;;1.40;0.90;;;19.50;60.20;;;;;;5039149;28;20061;-67
2024/04/03 11:59:34;;;;;;;1.17;0.98;;;19.60;60.20;;;;;;5035701;28;20060;-65
2024/04/03 12:02:00;;;;;;;1.88;1.10;;;19.60;60.20;;;;;;5039052;28;20040;-68
2024/04/03 12:04:26;;;;;;;1.50;0.82;;;19.60;60.20;;;;;;5041240;28;20077;-68
2024/04/03 12:06:52;;;;;;;1.20;0.90;;;19.50;60.20;;;;;;5050056;28;20289;-68
2024/04/03 12:09:17;;;;;;;1.58;1.08;;;19.60;60.30;;;;;;5040190;28;20108;-67
2024/04/03 12:11:43;;;;;;;1.42;0.60;;;19.60;60.20;;;;;;5029136;28;20029;-65
2024/04/03 12:14:08;;;;;;;0.95;0.63;;;19.60;60.20;;;;;;5055412;28;20037;-66
2024/04/03 12:16:37;;;;;;;1.45;0.82;;;19.60;60.20;;;;;;5033754;28;20048;-68
2024/04/03 12:21:48;;;;;;;1.20;0.65;;;19.60;60.30;;;;;;5036650;28;20039;-69
2024/04/03 12:24:14;;;;;;;1.23;0.70;;;19.60;60.30;;;;;;5040816;28;20029;-68
2024/04/03 12:26:41;;;;;;;1.10;0.90;;;19.50;60.30;;;;;;5042345;28;20044;-68
2024/04/03 12:29:07;;;;;;;1.00;0.65;;;19.60;60.30;;;;;;5035629;28;20424;-68
2024/04/03 12:31:33;;;;;;;1.02;0.60;;;19.60;60.30;;;;;;5037655;28;20034;-68
2024/04/03 12:33:59;;;;;;;1.02;0.75;;;19.60;60.30;;;;;;5032351;28;20033;-69
2024/04/03 12:36:25;;;;;;;1.55;0.80;;;19.60;60.30;;;;;;5022145;28;20102;-68
2024/04/03 12:38:52;;;;;;;1.58;0.80;;;19.60;60.30;;;;;;4985440;28;20036;-67
2024/04/03 12:41:17;;;;;;;0.98;0.70;;;19.50;60.30;;;;;;5000738;28;20068;-68
2024/04/03 12:43:43;;;;;;;1.20;0.73;;;19.60;60.40;;;;;;5022351;28;20407;-68
2024/04/03 12:46:10;;;;;;;1.58;0.70;;;19.50;60.40;;;;;;5021215;28;20089;-67
2024/04/03 12:48:36;;;;;;;1.38;0.68;;;19.50;60.40;;;;;;5028428;28;20135;-67
2024/04/03 12:51:01;;;;;;;1.55;0.60;;;19.50;60.50;;;;;;5027607;28;20037;-69
2024/04/03 12:53:28;;;;;;;1.25;0.70;;;19.50;60.60;;;;;;5029634;28;20033;-67